Time;durP1;ratioP1;P1;durP2;ratioP2;P2;SDS_P1;SDS_P2;PMS_P1;PMS_P2;Temp;Humidity;BMP_temperature;BMP_pressure;BME280_temperature;BME280_humidity;BME280_pressure;Samples;Min_cycle;Max_cycle;Signal;HPM_P1;HPM_P2
2023/12/14 00:01:48;;;;;;;8.20;4.47;;;;;;;5.27;100.00;97317.00;6103818;19;20002;-71
2023/12/14 00:03:48;;;;;;;6.07;4.68;;;;;;;5.24;100.00;97323.25;6103271;19;20459;-71
2023/12/14 00:05:49;;;;;;;7.93;4.60;;;;;;;5.17;100.00;97315.69;6102072;19;20078;-71
2023/12/14 00:07:49;;;;;;;7.00;4.35;;;;;;;5.20;100.00;97334.16;6103860;19;20490;-71
2023/12/14 00:09:49;;;;;;;7.03;4.63;;;;;;;5.19;100.00;97324.34;6101309;19;20371;-71
2023/12/14 00:11:50;;;;;;;6.90;3.90;;;;;;;5.20;100.00;97333.34;6102549;19;20040;-71
2023/12/14 00:13:50;;;;;;;7.53;4.22;;;;;;;5.22;100.00;97333.78;6102859;19;19998;-71
2023/12/14 00:15:50;;;;;;;7.97;4.43;;;;;;;5.17;100.00;97332.16;6102988;19;20313;-71
2023/12/14 00:17:51;;;;;;;9.02;4.43;;;;;;;5.16;100.00;97329.78;6102981;19;20062;-71
2023/12/14 00:19:51;;;;;;;6.85;3.97;;;;;;;5.14;100.00;97334.84;6101876;19;20550;-71
2023/12/14 00:21:51;;;;;;;6.72;4.45;;;;;;;5.13;100.00;97334.06;6102601;19;20466;-71
2023/12/14 00:23:52;;;;;;;10.18;5.38;;;;;;;5.13;100.00;97344.22;6102792;19;20219;-71
2023/12/14 00:25:52;;;;;;;5.68;3.95;;;;;;;5.15;100.00;97339.97;6102343;19;20032;-71
2023/12/14 00:27:53;;;;;;;6.88;3.67;;;;;;;5.12;100.00;97342.63;6102348;19;20226;-71
2023/12/14 00:29:53;;;;;;;5.78;3.30;;;;;;;5.08;100.00;97342.59;6101368;19;20078;-71
2023/12/14 00:31:53;;;;;;;4.10;2.80;;;;;;;5.12;100.00;97345.38;6100248;19;20430;-71
2023/12/14 00:33:54;;;;;;;4.40;2.88;;;;;;;5.07;100.00;97363.75;6101328;19;20006;-71
2023/12/14 00:35:54;;;;;;;4.35;2.60;;;;;;;5.06;100.00;97353.94;6102483;19;20006;-71
2023/12/14 00:37:54;;;;;;;3.58;2.47;;;;;;;5.05;100.00;97365.28;6102288;19;20046;-71
2023/12/14 00:39:55;;;;;;;4.00;2.70;;;;;;;5.02;100.00;97357.78;6101047;19;20058;-71
2023/12/14 00:41:55;;;;;;;3.28;2.25;;;;;;;4.99;100.00;97351.09;6102952;19;20010;-71
2023/12/14 00:43:55;;;;;;;4.15;2.72;;;;;;;5.00;100.00;97357.34;6101269;19;20006;-71
2023/12/14 00:45:56;;;;;;;3.83;2.40;;;;;;;4.96;100.00;97359.25;6101629;19;20070;-71
2023/12/14 00:47:56;;;;;;;4.68;2.55;;;;;;;4.96;100.00;97364.72;6102431;19;20007;-71
2023/12/14 00:49:56;;;;;;;4.50;2.28;;;;;;;4.96;100.00;97371.00;6089074;19;20002;-71
2023/12/14 00:51:58;;;;;;;4.32;2.22;;;;;;;4.94;100.00;97372.53;6100431;19;20067;-71
2023/12/14 00:53:58;;;;;;;5.63;2.20;;;;;;;4.94;100.00;97372.53;6102891;19;20050;-71
2023/12/14 00:55:59;;;;;;;4.50;2.22;;;;;;;4.91;100.00;97368.59;6101547;19;20014;-71
2023/12/14 00:57:59;;;;;;;3.30;2.25;;;;;;;4.90;100.00;97372.47;6100432;19;20010;-71
2023/12/14 00:59:59;;;;;;;4.93;2.33;;;;;;;4.92;100.00;97372.13;6099990;19;20010;-71
2023/12/14 01:02:00;;;;;;;3.47;2.33;;;;;;;4.94;100.00;97376.06;6102475;19;20372;-71
2023/12/14 01:04:00;;;;;;;4.72;2.30;;;;;;;4.90;100.00;97377.97;6101363;19;20379;-71
2023/12/14 01:06:00;;;;;;;4.68;2.08;;;;;;;4.89;100.00;97381.88;6099466;19;20049;-71
2023/12/14 01:08:01;;;;;;;4.03;2.30;;;;;;;4.88;100.00;97383.03;6099403;19;20003;-71
2023/12/14 01:10:02;;;;;;;3.13;2.05;;;;;;;4.93;100.00;97381.91;6099163;19;20018;-71
2023/12/14 01:12:03;;;;;;;4.50;2.05;;;;;;;4.90;100.00;97396.38;6099387;19;20007;-71
2023/12/14 01:14:04;;;;;;;4.72;2.20;;;;;;;4.87;100.00;97392.38;6101426;19;20344;-71
2023/12/14 01:16:04;;;;;;;3.25;2.00;;;;;;;4.86;100.00;97399.03;6100659;19;20475;-71
2023/12/14 01:18:05;;;;;;;3.70;2.50;;;;;;;4.85;100.00;97402.13;6099316;19;20002;-71
2023/12/14 01:20:07;;;;;;;4.55;2.40;;;;;;;4.83;100.00;97398.97;6099225;19;20009;-71
2023/12/14 01:22:07;;;;;;;4.55;2.13;;;;;;;4.89;100.00;97409.28;6100102;19;20042;-71
2023/12/14 01:24:07;;;;;;;5.75;2.60;;;;;;;4.86;100.00;97409.19;6100567;19;20021;-70
2023/12/14 01:26:08;;;;;;;4.45;2.45;;;;;;;4.89;100.00;97417.50;6099750;19;20006;-71
2023/12/14 01:28:08;;;;;;;4.97;2.53;;;;;;;4.87;100.00;97419.00;6099209;19;20006;-70
2023/12/14 01:30:09;;;;;;;3.65;2.20;;;;;;;4.88;100.00;97417.84;6099578;19;19998;-71
2023/12/14 01:32:10;;;;;;;4.07;2.30;;;;;;;4.88;100.00;97415.91;6098964;19;20687;-71
2023/12/14 01:34:12;;;;;;;5.63;2.50;;;;;;;4.84;100.00;97428.75;6099754;19;20411;-71
2023/12/14 01:36:20;;;;;;;3.65;2.42;;;;;;;4.94;100.00;97430.88;6100324;19;20431;-71
2023/12/14 01:38:20;;;;;;;4.38;2.83;;;;;;;4.91;100.00;97433.56;6099092;19;20003;-70
2023/12/14 01:40:20;;;;;;;4.35;2.10;;;;;;;4.85;100.00;97424.84;6099247;19;20026;-71
2023/12/14 01:42:21;;;;;;;3.53;2.40;;;;;;;4.85;100.00;97440.50;6099067;19;20034;-71
2023/12/14 01:44:21;;;;;;;3.90;2.30;;;;;;;4.84;100.00;97444.41;6099228;19;20102;-71
2023/12/14 01:46:21;;;;;;;4.32;2.28;;;;;;;4.88;100.00;97442.50;6098401;19;20010;-71
2023/12/14 01:48:22;;;;;;;3.63;2.00;;;;;;;4.86;100.00;97455.78;6098389;19;20484;-71
2023/12/14 01:50:22;;;;;;;4.13;2.10;;;;;;;4.84;100.00;97452.63;6088399;19;20007;-71
2023/12/14 01:52:23;;;;;;;6.35;2.10;;;;;;;4.84;100.00;97456.16;6086598;19;20002;-71
2023/12/14 01:54:23;;;;;;;3.45;2.40;;;;;;;4.81;100.00;97454.16;6085882;19;20006;-71
2023/12/14 01:56:23;;;;;;;3.83;2.10;;;;;;;4.83;100.00;97470.25;6084322;19;20003;-71
2023/12/14 01:58:26;;;;;;;3.30;2.28;;;;;;;4.83;100.00;97468.28;6086415;19;20009;-71
2023/12/14 02:00:41;;;;;;;3.92;1.98;;;;;;;4.82;100.00;97463.19;6084544;19;20534;-71
2023/12/14 02:02:41;;;;;;;2.65;1.70;;;;;;;4.82;100.00;97476.88;6084674;19;20007;-71
2023/12/14 02:04:41;;;;;;;3.28;1.52;;;;;;;4.82;100.00;97476.88;6084834;19;20842;-71
2023/12/14 02:06:42;;;;;;;2.72;1.75;;;;;;;4.73;100.00;97472.44;6084566;19;20010;-71
2023/12/14 02:08:42;;;;;;;4.63;2.13;;;;;;;4.76;100.00;97474.44;6084847;19;20011;-71
2023/12/14 02:10:42;;;;;;;3.42;1.90;;;;;;;4.77;100.00;97480.69;6084733;19;20601;-71
2023/12/14 02:12:43;;;;;;;3.45;2.15;;;;;;;4.79;100.00;97483.84;6084497;19;20744;-71
2023/12/14 02:14:43;;;;;;;4.57;2.22;;;;;;;4.77;100.00;97478.75;6084743;19;20011;-71
2023/12/14 02:16:43;;;;;;;3.67;2.05;;;;;;;4.76;100.00;97479.13;6085846;19;20035;-71
2023/12/14 02:18:44;;;;;;;6.07;2.35;;;;;;;4.75;100.00;97483.03;6085243;19;20019;-71
2023/12/14 02:20:45;;;;;;;5.35;2.25;;;;;;;4.76;100.00;97479.91;6083848;19;20007;-71
2023/12/14 02:22:52;;;;;;;4.05;2.47;;;;;;;4.76;100.00;97484.59;6084874;19;20469;-71
2023/12/14 02:24:52;;;;;;;4.70;2.60;;;;;;;4.74;100.00;97481.44;6084534;19;20010;-71
2023/12/14 02:26:53;;;;;;;3.53;2.03;;;;;;;4.77;100.00;97486.97;6085447;19;20856;-71
2023/12/14 02:28:53;;;;;;;4.03;2.40;;;;;;;4.78;100.00;97491.28;6084061;19;20423;-71
2023/12/14 02:30:54;;;;;;;5.20;2.45;;;;;;;4.76;100.00;97504.56;6083817;19;20018;-71
2023/12/14 02:32:54;;;;;;;4.60;2.40;;;;;;;4.75;100.00;97505.72;6084510;19;20093;-71
2023/12/14 02:34:54;;;;;;;4.70;2.47;;;;;;;4.74;100.00;97500.63;6084484;19;20023;-71
2023/12/14 02:36:55;;;;;;;4.45;2.15;;;;;;;4.77;100.00;97502.63;6083397;19;20006;-71
2023/12/14 02:38:55;;;;;;;4.20;2.33;;;;;;;4.73;100.00;97499.81;6083346;19;20041;-71
2023/12/14 02:40:55;;;;;;;3.00;1.90;;;;;;;4.73;100.00;97505.31;6081545;19;20062;-71
2023/12/14 02:42:56;;;;;;;3.75;1.90;;;;;;;4.72;100.00;97502.94;6084793;19;20031;-71
2023/12/14 02:44:56;;;;;;;8.70;2.40;;;;;;;4.72;100.00;97505.69;6081091;19;20006;-71
2023/12/14 02:46:57;;;;;;;3.28;2.17;;;;;;;4.68;100.00;97507.53;6084750;19;20007;-71
2023/12/14 02:48:57;;;;;;;3.08;1.88;;;;;;;4.68;100.00;97511.06;6084281;19;20006;-71
2023/12/14 02:50:59;;;;;;;4.00;2.30;;;;;;;4.65;100.00;97508.28;6094752;19;20043;-71
2023/12/14 02:53:00;;;;;;;2.50;1.70;;;;;;;4.67;100.00;97506.75;6098548;19;20113;-71
2023/12/14 02:55:00;;;;;;;5.65;2.22;;;;;;;4.66;100.00;97509.84;6096260;19;20034;-71
2023/12/14 02:57:01;;;;;;;2.70;1.80;;;;;;;4.65;100.00;97516.50;6101108;19;20006;-71
2023/12/14 02:59:01;;;;;;;2.42;1.58;;;;;;;4.64;100.00;97514.91;6104102;19;20318;-71
2023/12/14 03:01:01;;;;;;;6.00;2.28;;;;;;;4.64;100.00;97523.13;6102513;19;20022;-71
2023/12/14 03:03:02;;;;;;;2.78;1.83;;;;;;;4.69;100.00;97526.34;6104024;19;20006;-71
2023/12/14 03:05:02;;;;;;;3.47;1.85;;;;;;;4.66;100.00;97520.81;6102636;19;20007;-71
2023/12/14 03:07:03;;;;;;;3.35;1.73;;;;;;;4.64;100.00;97529.41;6103555;19;20045;-71
2023/12/14 03:09:03;;;;;;;5.45;2.05;;;;;;;4.62;100.00;97528.94;6103128;19;20410;-71
2023/12/14 03:11:03;;;;;;;3.45;2.30;;;;;;;4.65;100.00;97541.94;6101446;19;20011;-71
2023/12/14 03:13:04;;;;;;;4.15;2.42;;;;;;;4.68;100.00;97541.22;6103954;19;20018;-71
2023/12/14 03:15:04;;;;;;;7.53;3.20;;;;;;;4.69;100.00;97548.28;6103413;19;20032;-71
2023/12/14 03:17:06;;;;;;;5.22;2.45;;;;;;;4.70;100.00;97552.59;6104086;19;20072;-71
2023/12/14 03:19:07;;;;;;;3.60;2.20;;;;;;;4.71;100.00;97548.69;6104656;19;20038;-71
2023/12/14 03:21:07;;;;;;;5.80;2.55;;;;;;;4.74;100.00;97555.41;6103232;19;20002;-71
2023/12/14 03:23:07;;;;;;;4.45;2.38;;;;;;;4.75;100.00;97555.06;6104483;19;20037;-71
2023/12/14 03:25:10;;;;;;;6.68;3.10;;;;;;;4.75;100.00;97557.00;6104638;19;20007;-71
2023/12/14 03:27:10;;;;;;;4.90;2.80;;;;;;;4.76;100.00;97556.63;6104428;19;20014;-71
2023/12/14 03:29:10;;;;;;;6.35;3.30;;;;;;;4.78;100.00;97562.53;6103394;19;20029;-71
2023/12/14 03:31:12;;;;;;;6.50;3.00;;;;;;;4.77;100.00;97566.44;6101342;19;20500;-71
2023/12/14 03:33:13;;;;;;;5.28;3.53;;;;;;;4.78;100.00;97561.75;6104944;19;20010;-71
2023/12/14 03:35:13;;;;;;;7.22;3.22;;;;;;;4.76;100.00;97566.81;6103499;19;20566;-71
2023/12/14 03:37:13;;;;;;;7.25;4.22;;;;;;;4.77;100.00;97557.44;6104049;19;20015;-71
2023/12/14 03:39:16;;;;;;;4.80;3.20;;;;;;;4.74;100.00;97569.91;6100695;19;20392;-71
2023/12/14 03:41:16;;;;;;;5.35;3.50;;;;;;;4.72;100.00;97572.22;6102358;19;20018;-71
2023/12/14 03:43:16;;;;;;;6.82;3.85;;;;;;;4.72;100.00;97577.72;6103007;19;20097;-71
2023/12/14 03:45:17;;;;;;;9.32;4.40;;;;;;;4.68;100.00;97584.25;6102336;19;20013;-71
2023/12/14 03:47:17;;;;;;;8.23;4.35;;;;;;;4.70;100.00;97587.44;6102976;19;20002;-71
2023/12/14 03:49:18;;;;;;;9.07;4.97;;;;;;;4.69;100.00;97596.81;6101791;19;20359;-71
2023/12/14 03:51:19;;;;;;;10.20;4.90;;;;;;;4.68;100.00;97587.78;6099941;19;20010;-71
2023/12/14 03:53:19;;;;;;;9.55;4.70;;;;;;;4.67;100.00;97590.91;6103107;19;20344;-71
2023/12/14 03:55:20;;;;;;;9.15;5.15;;;;;;;4.64;100.00;97589.69;6102896;19;20026;-71
2023/12/14 03:57:20;;;;;;;7.32;4.05;;;;;;;4.64;100.00;97589.69;6101083;19;20469;-71
2023/12/14 03:59:21;;;;;;;8.13;4.85;;;;;;;4.65;100.00;97601.44;6101904;19;20289;-71
2023/12/14 04:01:21;;;;;;;10.30;6.60;;;;;;;4.65;100.00;97598.69;6102150;19;20074;-71
2023/12/14 04:03:21;;;;;;;8.98;5.00;;;;;;;4.63;100.00;97599.03;6102220;19;20021;-71
2023/12/14 04:05:22;;;;;;;8.93;5.47;;;;;;;4.65;100.00;97615.94;6101374;19;20027;-71
2023/12/14 04:07:22;;;;;;;9.82;5.35;;;;;;;4.64;100.00;97608.06;6101178;19;20424;-71
2023/12/14 04:09:23;;;;;;;8.45;5.35;;;;;;;4.70;100.00;97621.09;6100144;19;20065;-71
2023/12/14 04:11:23;;;;;;;9.82;5.53;;;;;;;4.72;100.00;97626.25;6101603;19;20053;-71
2023/12/14 04:13:24;;;;;;;8.50;5.25;;;;;;;4.67;100.00;97623.78;6102588;19;20010;-71
2023/12/14 04:15:24;;;;;;;9.98;5.55;;;;;;;4.65;100.00;97635.09;6101779;19;20697;-71
2023/12/14 04:17:24;;;;;;;12.57;5.65;;;;;;;4.64;100.00;97638.22;6102422;19;20586;-71
2023/12/14 04:19:25;;;;;;;12.43;5.80;;;;;;;4.67;100.00;97632.00;6101146;19;20413;-71
2023/12/14 04:21:26;;;;;;;12.13;6.20;;;;;;;4.65;100.00;97635.09;6103341;19;20118;-71
2023/12/14 04:23:26;;;;;;;8.50;5.05;;;;;;;4.65;100.00;97637.06;6102144;19;20029;-71
2023/12/14 04:25:27;;;;;;;8.45;4.72;;;;;;;4.64;100.00;97638.22;6101030;19;20361;-71
2023/12/14 04:27:29;;;;;;;10.43;5.95;;;;;;;4.66;100.00;97641.38;6102458;19;20355;-71
2023/12/14 04:29:29;;;;;;;8.95;5.63;;;;;;;4.64;100.00;97646.44;6101309;19;20484;-71
2023/12/14 04:31:30;;;;;;;9.43;5.40;;;;;;;4.64;100.00;97657.38;6101486;19;20003;-71
2023/12/14 04:33:31;;;;;;;7.82;5.03;;;;;;;4.66;100.00;97655.06;6102222;19;20029;-71
2023/12/14 04:35:36;;;;;;;9.02;4.93;;;;;;;4.67;100.00;97659.41;6100259;19;20059;-71
2023/12/14 04:37:36;;;;;;;10.75;5.80;;;;;;;4.67;100.00;97662.13;6097735;19;20010;-71
2023/12/14 04:39:37;;;;;;;10.35;6.25;;;;;;;4.67;100.00;97665.66;6099591;19;20009;-71
2023/12/14 04:41:37;;;;;;;12.13;5.60;;;;;;;4.67;100.00;97670.34;6098918;19;20313;-71
2023/12/14 04:43:37;;;;;;;11.85;6.72;;;;;;;4.70;100.00;97675.13;6100486;19;20011;-71
2023/12/14 04:45:38;;;;;;;13.70;6.55;;;;;;;4.69;100.00;97679.00;6098364;19;20003;-71
2023/12/14 04:47:38;;;;;;;12.15;6.60;;;;;;;4.69;100.00;97674.31;6101680;19;20008;-71
2023/12/14 04:49:38;;;;;;;14.95;6.60;;;;;;;4.75;100.00;97685.81;6100621;19;20002;-71
2023/12/14 04:51:39;;;;;;;12.23;7.15;;;;;;;4.78;100.00;97676.84;6100514;19;20035;-71
2023/12/14 04:53:39;;;;;;;11.80;6.22;;;;;;;4.83;100.00;97679.31;6102080;19;20003;-71
2023/12/14 04:55:40;;;;;;;9.27;6.22;;;;;;;4.92;100.00;97684.59;6101156;19;20019;-71
2023/12/14 04:57:40;;;;;;;11.52;6.80;;;;;;;4.99;100.00;97690.22;6100896;19;20011;-71
2023/12/14 04:59:41;;;;;;;14.27;7.32;;;;;;;4.98;100.00;97675.72;6100102;19;20006;-71
2023/12/14 05:01:42;;;;;;;11.55;6.90;;;;;;;4.99;100.00;97688.28;6101744;19;20043;-71
2023/12/14 05:03:43;;;;;;;11.75;7.03;;;;;;;4.96;100.00;97696.41;6101815;19;20344;-71
2023/12/14 05:05:44;;;;;;;12.05;7.20;;;;;;;5.01;100.00;97696.13;6100211;19;20415;-71
2023/12/14 05:07:47;;;;;;;12.85;7.20;;;;;;;4.99;100.00;97692.97;6101159;19;20027;-71
2023/12/14 05:09:47;;;;;;;14.18;8.65;;;;;;;4.95;100.00;97705.78;6100368;19;20002;-71
2023/12/14 05:11:47;;;;;;;14.23;8.60;;;;;;;4.93;100.00;97710.84;6101114;19;20062;-71
2023/12/14 05:13:48;;;;;;;13.13;7.85;;;;;;;4.90;100.00;97712.38;6101426;19;20347;-71
2023/12/14 05:15:48;;;;;;;15.50;8.52;;;;;;;4.89;100.00;97713.53;6100657;19;20042;-71
2023/12/14 05:17:48;;;;;;;15.18;8.18;;;;;;;4.88;100.00;97720.16;6102031;19;20568;-71
2023/12/14 05:19:49;;;;;;;16.05;8.43;;;;;;;4.87;100.00;97715.81;6098387;19;20006;-71
2023/12/14 05:21:50;;;;;;;15.27;8.73;;;;;;;4.87;100.00;97725.97;6100174;19;20439;-71
2023/12/14 05:23:50;;;;;;;17.45;9.63;;;;;;;4.89;100.00;97723.69;6101204;19;20003;-71
2023/12/14 05:25:51;;;;;;;17.70;9.70;;;;;;;4.93;100.00;97728.09;6100325;19;20007;-71
2023/12/14 05:27:51;;;;;;;17.02;8.68;;;;;;;4.92;100.00;97740.22;6100366;19;20027;-71
2023/12/14 05:29:52;;;;;;;20.88;9.82;;;;;;;4.90;100.00;97737.03;6100064;19;20006;-71
2023/12/14 05:31:52;;;;;;;16.55;8.93;;;;;;;4.92;100.00;97742.94;6099766;19;20582;-71
2023/12/14 05:33:52;;;;;;;17.65;9.25;;;;;;;4.90;100.00;97745.25;6099565;19;20086;-71
2023/12/14 05:35:53;;;;;;;19.38;8.93;;;;;;;4.89;100.00;97753.84;6100769;19;20010;-71
2023/12/14 05:37:54;;;;;;;18.40;9.10;;;;;;;4.89;100.00;97760.13;6100951;19;20404;-71
2023/12/14 05:39:54;;;;;;;15.07;8.45;;;;;;;4.87;100.00;97759.66;6098793;19;20320;-71
2023/12/14 05:41:54;;;;;;;17.00;8.95;;;;;;;4.85;100.00;97753.75;6100183;19;20478;-71
2023/12/14 05:43:55;;;;;;;18.58;8.85;;;;;;;4.86;100.00;97762.75;6099389;19;20010;-71
2023/12/14 05:45:55;;;;;;;18.08;9.43;;;;;;;4.87;100.00;97767.09;6099920;19;20034;-71
2023/12/14 05:47:56;;;;;;;19.25;9.45;;;;;;;4.83;100.00;97767.03;6100193;19;20552;-71
2023/12/14 05:49:56;;;;;;;21.17;10.30;;;;;;;4.85;100.00;97767.47;6088103;19;20007;-71
2023/12/14 05:51:59;;;;;;;18.20;9.38;;;;;;;4.82;100.00;97773.66;6097570;19;20502;-71
2023/12/14 05:53:59;;;;;;;21.35;9.68;;;;;;;4.86;100.00;97774.53;6099325;19;20010;-71
2023/12/14 05:56:00;;;;;;;19.73;9.77;;;;;;;4.82;100.00;97772.88;6099093;19;20003;-71
2023/12/14 05:58:00;;;;;;;18.15;10.00;;;;;;;4.83;100.00;97783.47;6100362;19;20013;-71
2023/12/14 06:00:00;;;;;;;21.10;9.98;;;;;;;4.82;100.00;97781.88;6098145;19;20380;-71
2023/12/14 06:02:01;;;;;;;19.48;9.75;;;;;;;4.87;100.00;97780.81;6099493;19;20346;-71
2023/12/14 06:04:02;;;;;;;22.63;10.85;;;;;;;4.87;100.00;97789.81;6098666;19;20018;-71
2023/12/14 06:06:02;;;;;;;20.60;10.27;;;;;;;4.83;100.00;97790.91;6097548;19;20066;-71
2023/12/14 06:08:04;;;;;;;23.35;11.43;;;;;;;4.77;100.00;97791.16;6096587;19;20010;-71
2023/12/14 06:10:05;;;;;;;23.95;10.40;;;;;;;4.82;100.00;97817.50;6098912;19;20006;-71
2023/12/14 06:12:05;;;;;;;24.77;11.60;;;;;;;4.79;100.00;97810.78;6099800;19;20010;-71
2023/12/14 06:14:06;;;;;;;25.90;10.77;;;;;;;4.84;100.00;97811.66;6096940;19;20020;-71
2023/12/14 06:16:12;;;;;;;22.92;12.05;;;;;;;4.84;100.00;97817.16;6097123;19;20011;-71
2023/12/14 06:18:13;;;;;;;23.90;11.30;;;;;;;4.83;100.00;97816.38;6097981;19;20018;-71
2023/12/14 06:20:13;;;;;;;24.42;10.68;;;;;;;4.85;100.00;97825.00;6097347;19;20011;-71
2023/12/14 06:22:14;;;;;;;25.33;12.77;;;;;;;4.84;100.00;97834.38;6099122;19;20375;-71
2023/12/14 06:24:15;;;;;;;16.05;9.23;;;;;;;4.83;100.00;97832.00;6097362;19;20002;-70
2023/12/14 06:26:15;;;;;;;18.50;8.88;;;;;;;4.74;100.00;97827.50;6097543;19;20407;-71
2023/12/14 06:28:15;;;;;;;16.65;10.45;;;;;;;4.77;100.00;97836.97;6099653;19;20005;-71
2023/12/14 06:30:16;;;;;;;13.63;7.68;;;;;;;4.70;100.00;97837.59;6097480;19;20247;-71
2023/12/14 06:32:16;;;;;;;13.25;7.78;;;;;;;4.66;100.00;97846.88;6102760;19;20018;-71
2023/12/14 06:34:17;;;;;;;14.05;7.20;;;;;;;4.61;100.00;97852.63;6100257;19;20007;-71
2023/12/14 06:36:20;;;;;;;14.45;7.57;;;;;;;4.59;100.00;97855.72;6101354;19;20010;-71
2023/12/14 06:38:20;;;;;;;15.15;7.22;;;;;;;4.62;100.00;97867.91;6102232;19;20349;-71
2023/12/14 06:40:20;;;;;;;12.82;7.60;;;;;;;4.60;100.00;97864.72;6103857;19;20109;-71
2023/12/14 06:42:21;;;;;;;13.75;7.85;;;;;;;4.63;100.00;97867.53;6104388;19;20044;-70
2023/12/14 06:44:21;;;;;;;13.18;8.38;;;;;;;4.63;100.00;97872.22;6104822;19;20011;-70
2023/12/14 06:46:21;;;;;;;11.45;7.00;;;;;;;4.65;100.00;97876.22;6104290;19;20034;-70
2023/12/14 06:48:22;;;;;;;14.27;7.60;;;;;;;4.63;100.00;97875.75;6103775;19;20035;-71
2023/12/14 06:50:22;;;;;;;12.80;7.57;;;;;;;4.56;100.00;97872.88;6093695;19;20018;-71
2023/12/14 06:52:23;;;;;;;10.05;6.35;;;;;;;4.58;100.00;97876.03;6090647;19;20007;-71
2023/12/14 06:54:23;;;;;;;12.63;7.68;;;;;;;4.59;100.00;97882.31;6091069;19;20070;-71
2023/12/14 06:56:23;;;;;;;9.70;6.32;;;;;;;4.56;100.00;97878.34;6091579;19;20451;-71
2023/12/14 06:58:24;;;;;;;9.30;5.95;;;;;;;4.55;100.00;97887.72;6090258;19;20110;-71
2023/12/14 07:00:24;;;;;;;10.23;6.30;;;;;;;4.51;100.00;97892.28;6088802;19;20006;-71
2023/12/14 07:02:24;;;;;;;11.90;5.88;;;;;;;4.42;100.00;97897.16;6091464;19;20007;-71
2023/12/14 07:04:25;;;;;;;12.35;6.78;;;;;;;4.35;100.00;97905.19;6089939;19;20462;-71
2023/12/14 07:06:25;;;;;;;11.85;6.78;;;;;;;4.29;100.00;97912.03;6089989;19;20007;-71
2023/12/14 07:08:25;;;;;;;14.93;8.75;;;;;;;4.24;100.00;97915.84;6091634;19;20023;-71
2023/12/14 07:10:26;;;;;;;24.45;13.02;;;;;;;4.30;100.00;97925.38;6089845;19;20014;-71
2023/12/14 07:12:26;;;;;;;14.20;9.07;;;;;;;4.23;100.00;97926.00;6090026;19;20019;-71
2023/12/14 07:14:26;;;;;;;11.93;6.53;;;;;;;4.18;100.00;97933.66;6091126;19;20002;-71
2023/12/14 07:16:27;;;;;;;10.23;5.93;;;;;;;4.14;100.00;97939.06;6089853;19;20011;-71
2023/12/14 07:18:27;;;;;;;10.30;5.97;;;;;;;4.10;100.00;97940.09;6090272;19;20336;-71
2023/12/14 07:20:27;;;;;;;9.27;5.47;;;;;;;4.07;100.00;97943.53;6089452;19;20030;-71
2023/12/14 07:22:28;;;;;;;8.80;5.45;;;;;;;4.00;100.00;97949.59;6089664;19;20006;-71
2023/12/14 07:24:28;;;;;;;9.45;5.30;;;;;;;3.88;100.00;97947.69;6090302;19;20010;-71
2023/12/14 07:26:29;;;;;;;7.90;5.13;;;;;;;3.91;100.00;97948.94;6090802;19;20013;-71
2023/12/14 07:28:29;;;;;;;8.10;4.78;;;;;;;3.88;100.00;97957.84;6090931;19;20561;-71
2023/12/14 07:30:29;;;;;;;8.13;4.70;;;;;;;3.86;100.00;97949.19;6088527;19;20026;-70
2023/12/14 07:32:30;;;;;;;8.63;4.85;;;;;;;3.75;100.00;97956.28;6089890;19;20031;-70
2023/12/14 07:34:30;;;;;;;8.77;4.88;;;;;;;3.78;100.00;97959.13;6090145;19;20280;-70
2023/12/14 07:36:31;;;;;;;13.13;5.63;;;;;;;3.75;100.00;97967.22;6090130;19;19999;-70
2023/12/14 07:38:31;;;;;;;9.05;5.05;;;;;;;3.75;100.00;97965.28;6089728;19;20081;-70
2023/12/14 07:40:31;;;;;;;7.95;4.63;;;;;;;3.78;100.00;97980.22;6089252;19;20043;-70
2023/12/14 07:42:32;;;;;;;8.23;4.95;;;;;;;3.70;100.00;97973.72;6088385;19;20066;-70
2023/12/14 07:44:33;;;;;;;8.57;5.95;;;;;;;3.74;100.00;97979.31;6088215;19;20003;-70
2023/12/14 07:46:34;;;;;;;8.75;5.10;;;;;;;3.70;100.00;97981.94;6089762;19;20007;-70
2023/12/14 07:48:35;;;;;;;8.43;5.30;;;;;;;3.64;100.00;97977.84;6091109;19;20371;-71
2023/12/14 07:50:36;;;;;;;6.78;4.72;;;;;;;3.63;100.00;97979.78;6098192;19;20011;-71
2023/12/14 07:52:36;;;;;;;7.88;5.07;;;;;;;3.64;100.00;97996.97;6102686;19;20008;-70
2023/12/14 07:54:36;;;;;;;7.72;4.60;;;;;;;3.61;100.00;98000.41;6102644;19;20482;-71
2023/12/14 07:56:37;;;;;;;10.80;5.15;;;;;;;3.58;100.00;97999.19;6103573;19;20017;-71
2023/12/14 07:58:37;;;;;;;8.55;5.07;;;;;;;3.59;100.00;98006.25;6103019;19;20014;-71
2023/12/14 08:00:37;;;;;;;8.35;5.15;;;;;;;3.58;100.00;98004.66;6101657;19;20010;-71
2023/12/14 08:02:38;;;;;;;8.63;4.57;;;;;;;3.59;100.00;98021.84;6104216;19;20010;-71
2023/12/14 08:04:38;;;;;;;8.30;5.30;;;;;;;3.60;100.00;98017.97;6102805;19;20010;-71
2023/12/14 08:06:39;;;;;;;7.55;4.60;;;;;;;3.61;100.00;98019.56;6102287;19;20018;-71
2023/12/14 08:08:39;;;;;;;8.02;4.85;;;;;;;3.62;100.00;98023.91;6103574;19;20034;-71
2023/12/14 08:10:40;;;;;;;7.40;4.18;;;;;;;3.60;100.00;98029.72;6100320;19;20561;-71
2023/12/14 08:12:40;;;;;;;7.18;4.18;;;;;;;3.57;100.00;98037.81;6103639;19;20011;-70
2023/12/14 08:14:43;;;;;;;7.47;3.83;;;;;;;3.59;100.00;98039.06;6102097;19;20002;-70
2023/12/14 08:16:43;;;;;;;7.38;4.18;;;;;;;3.59;100.00;98033.59;6103577;19;20394;-70
2023/12/14 08:18:48;;;;;;;6.95;4.20;;;;;;;3.61;100.00;98041.44;6103179;19;20074;-70
2023/12/14 08:20:48;;;;;;;9.00;4.97;;;;;;;3.61;100.00;98044.19;6102240;19;20010;-70
2023/12/14 08:22:48;;;;;;;5.80;3.70;;;;;;;3.60;100.00;98043.41;6102011;19;20009;-70
2023/12/14 08:24:49;;;;;;;7.88;3.95;;;;;;;3.54;100.00;98039.28;6101128;19;20007;-70
2023/12/14 08:26:49;;;;;;;6.90;3.30;;;;;;;3.58;100.00;98059.34;6102951;19;20097;-70
2023/12/14 08:28:50;;;;;;;8.15;4.57;;;;;;;3.57;100.00;98062.44;6102381;19;20035;-70
2023/12/14 08:30:50;;;;;;;10.20;5.53;;;;;;;3.55;100.00;98056.50;6102288;19;20268;-71
2023/12/14 08:32:51;;;;;;;11.07;6.15;;;;;;;3.55;100.00;98061.97;6102332;19;20003;-71
2023/12/14 08:34:52;;;;;;;12.23;6.05;;;;;;;3.60;100.00;98069.97;6101036;19;19994;-71
2023/12/14 08:36:53;;;;;;;15.55;8.05;;;;;;;3.63;100.00;98080.19;6102971;19;20031;-71
2023/12/14 08:38:54;;;;;;;9.00;5.35;;;;;;;3.61;100.00;98077.03;6103019;19;20002;-71
2023/12/14 08:40:54;;;;;;;8.35;5.13;;;;;;;3.63;100.00;98082.94;6101332;19;20006;-71
2023/12/14 08:42:55;;;;;;;8.88;4.55;;;;;;;3.63;100.00;98099.34;6101574;19;20345;-71
2023/12/14 08:44:55;;;;;;;9.38;5.78;;;;;;;3.66;100.00;98093.22;6102096;19;20904;-71
2023/12/14 08:46:55;;;;;;;9.60;6.05;;;;;;;3.53;100.00;98097.06;6101544;19;20409;-71
2023/12/14 08:48:56;;;;;;;8.50;5.70;;;;;;;3.54;100.00;98104.94;6101363;19;20024;-71
2023/12/14 08:50:56;;;;;;;10.68;5.40;;;;;;;3.58;100.00;98113.28;6101090;19;20011;-71
2023/12/14 08:52:58;;;;;;;8.98;5.07;;;;;;;3.53;100.00;98113.47;6101872;19;20019;-71
2023/12/14 08:54:59;;;;;;;;;;;;;;;3.57;100.00;98117.94;6102344;19;20012;-71
2023/12/14 08:57:00;;;;;;;7.22;4.60;;;;;;;3.60;100.00;98124.66;6101405;19;19941;-71
2023/12/14 08:59:03;;;;;;;7.30;4.53;;;;;;;3.57;100.00;98125.34;6102586;19;20245;-71
2023/12/14 09:01:03;;;;;;;;;;;;;;;3.58;100.00;98133.22;6101422;19;20576;-71
2023/12/14 09:03:04;;;;;;;24.45;9.18;;;;;;;3.60;100.00;98138.34;6101446;19;20335;-71
2023/12/14 09:05:05;;;;;;;21.50;9.60;;;;;;;3.58;100.00;98141.44;6101805;19;20362;-71
2023/12/14 09:07:06;;;;;;;22.77;9.02;;;;;;;3.51;100.00;98146.66;6102450;19;20368;-70
2023/12/14 09:09:06;;;;;;;15.35;6.63;;;;;;;3.48;100.00;98139.13;6102137;19;20026;-71
2023/12/14 09:11:07;;;;;;;18.98;8.27;;;;;;;3.51;100.00;98149.38;6100028;19;20014;-70
2023/12/14 09:13:07;;;;;;;15.43;6.93;;;;;;;3.50;100.00;98158.75;6102210;19;20094;-70
2023/12/14 09:15:08;;;;;;;11.18;6.22;;;;;;;3.41;100.00;98160.78;6100554;19;20022;-70
2023/12/14 09:17:08;;;;;;;14.55;7.25;;;;;;;3.39;100.00;98165.75;6100848;19;20463;-70
2023/12/14 09:19:08;;;;;;;9.45;5.15;;;;;;;3.41;100.00;98162.72;6102214;19;20058;-70
2023/12/14 09:21:09;;;;;;;6.18;3.65;;;;;;;3.41;100.00;98162.72;6100105;19;20015;-70
2023/12/14 09:23:09;;;;;;;10.60;4.82;;;;;;;3.45;100.00;98172.63;6100944;19;20007;-70
2023/12/14 09:25:10;;;;;;;12.60;5.60;;;;;;;3.38;100.00;98170.44;6101231;19;20016;-70
2023/12/14 09:27:10;;;;;;;6.60;4.28;;;;;;;3.47;100.00;98175.00;6100388;19;20028;-71